sensor_id;sensor_type;location;lat;lon;timestamp;pressure;altitude;pressure_sealevel;temperature;humidity
71149;BME280;59072;42.144;25.200;2024-03-08T00:01:52;100244.69;;;6.39;100.00
71149;BME280;59072;42.144;25.200;2024-03-08T00:04:18;100255.16;;;6.26;100.00
71149;BME280;59072;42.144;25.200;2024-03-08T00:06:43;100216.06;;;6.28;100.00
71149;BME280;59072;42.144;25.200;2024-03-08T00:09:11;100221.41;;;6.13;100.00
71149;BME280;59072;42.144;25.200;2024-03-08T00:11:37;100249.22;;;6.24;100.00
71149;BME280;59072;42.144;25.200;2024-03-08T00:14:02;100200.22;;;5.98;100.00
71149;BME280;59072;42.144;25.200;2024-03-08T00:16:28;100247.72;;;6.36;100.00
71149;BME280;59072;42.144;25.200;2024-03-08T00:18:54;100216.53;;;6.17;100.00
71149;BME280;59072;42.144;25.200;2024-03-08T00:21:19;100237.06;;;6.15;100.00
71149;BME280;59072;42.144;25.200;2024-03-08T00:23:44;100226.25;;;6.31;100.00
71149;BME280;59072;42.144;25.200;2024-03-08T00:26:10;100218.00;;;6.19;100.00
71149;BME280;59072;42.144;25.200;2024-03-08T00:28:35;100220.69;;;6.41;100.00
71149;BME280;59072;42.144;25.200;2024-03-08T00:31:01;100236.50;;;6.34;100.00
71149;BME280;59072;42.144;25.200;2024-03-08T00:33:26;100222.63;;;6.54;100.00
71149;BME280;59072;42.144;25.200;2024-03-08T00:35:53;100259.53;;;6.55;100.00
71149;BME280;59072;42.144;25.200;2024-03-08T00:38:19;100244.56;;;6.48;100.00
71149;BME280;59072;42.144;25.200;2024-03-08T00:40:44;100256.56;;;6.43;100.00
71149;BME280;59072;42.144;25.200;2024-03-08T00:43:10;100253.78;;;6.30;100.00
71149;BME280;59072;42.144;25.200;2024-03-08T00:45:36;100248.25;;;6.47;100.00
71149;BME280;59072;42.144;25.200;2024-03-08T00:48:03;100236.16;;;6.22;100.00
71149;BME280;59072;42.144;25.200;2024-03-08T00:50:28;100246.97;;;6.42;100.00
71149;BME280;59072;42.144;25.200;2024-03-08T00:52:53;100241.06;;;6.40;100.00
71149;BME280;59072;42.144;25.200;2024-03-08T00:55:19;100232.25;;;6.18;100.00
71149;BME280;59072;42.144;25.200;2024-03-08T00:57:45;100254.03;;;6.35;100.00
71149;BME280;59072;42.144;25.200;2024-03-08T01:00:11;100233.53;;;6.08;100.00
71149;BME280;59072;42.144;25.200;2024-03-08T01:02:40;100245.03;;;6.15;100.00
71149;BME280;59072;42.144;25.200;2024-03-08T01:05:06;100240.81;;;6.20;100.00
71149;BME280;59072;42.144;25.200;2024-03-08T01:07:33;100253.88;;;6.22;100.00
71149;BME280;59072;42.144;25.200;2024-03-08T01:09:59;100239.56;;;6.16;100.00
71149;BME280;59072;42.144;25.200;2024-03-08T01:12:26;100249.06;;;6.47;100.00
71149;BME280;59072;42.144;25.200;2024-03-08T01:14:51;100239.84;;;6.43;100.00
71149;BME280;59072;42.144;25.200;2024-03-08T01:17:16;100241.34;;;6.31;100.00
71149;BME280;59072;42.144;25.200;2024-03-08T01:19:42;100249.34;;;6.37;100.00
71149;BME280;59072;42.144;25.200;2024-03-08T01:22:10;100250.75;;;6.33;100.00
71149;BME280;59072;42.144;25.200;2024-03-08T01:24:35;100249.75;;;6.34;100.00
71149;BME280;59072;42.144;25.200;2024-03-08T01:27:01;100260.59;;;6.39;100.00
71149;BME280;59072;42.144;25.200;2024-03-08T01:29:27;100248.66;;;6.29;100.00
71149;BME280;59072;42.144;25.200;2024-03-08T01:31:55;100254.41;;;6.32;100.00
71149;BME280;59072;42.144;25.200;2024-03-08T01:34:20;100232.81;;;6.35;100.00
71149;BME280;59072;42.144;25.200;2024-03-08T01:36:46;100251.66;;;6.40;100.00
71149;BME280;59072;42.144;25.200;2024-03-08T01:39:11;100245.09;;;6.36;100.00
71149;BME280;59072;42.144;25.200;2024-03-08T01:41:36;100234.00;;;5.96;100.00
71149;BME280;59072;42.144;25.200;2024-03-08T01:44:02;100263.94;;;6.12;100.00
71149;BME280;59072;42.144;25.200;2024-03-08T01:46:28;100245.22;;;6.13;100.00
71149;BME280;59072;42.144;25.200;2024-03-08T01:48:54;100258.44;;;6.28;100.00
71149;BME280;59072;42.144;25.200;2024-03-08T01:51:20;100260.97;;;6.36;100.00
71149;BME280;59072;42.144;25.200;2024-03-08T01:53:47;100235.56;;;6.06;100.00
71149;BME280;59072;42.144;25.200;2024-03-08T01:56:13;100244.78;;;6.10;100.00
71149;BME280;59072;42.144;25.200;2024-03-08T01:58:41;100244.56;;;6.26;100.00
71149;BME280;59072;42.144;25.200;2024-03-08T02:01:08;100243.81;;;6.32;100.00
71149;BME280;59072;42.144;25.200;2024-03-08T02:03:35;100262.28;;;6.26;100.00
71149;BME280;59072;42.144;25.200;2024-03-08T02:06:01;100243.28;;;6.22;100.00
71149;BME280;59072;42.144;25.200;2024-03-08T02:08:27;100252.69;;;6.24;100.00
71149;BME280;59072;42.144;25.200;2024-03-08T02:10:52;100240.38;;;6.17;100.00
71149;BME280;59072;42.144;25.200;2024-03-08T02:13:17;100250.81;;;6.03;100.00
71149;BME280;59072;42.144;25.200;2024-03-08T02:15:58;100244.25;;;5.99;100.00
71149;BME280;59072;42.144;25.200;2024-03-08T02:18:28;100255.19;;;5.96;100.00
71149;BME280;59072;42.144;25.200;2024-03-08T02:21:00;100239.22;;;5.75;100.00
71149;BME280;59072;42.144;25.200;2024-03-08T02:23:26;100254.38;;;5.96;100.00
71149;BME280;59072;42.144;25.200;2024-03-08T02:25:53;100257.72;;;5.75;100.00
71149;BME280;59072;42.144;25.200;2024-03-08T02:28:19;100264.84;;;5.89;100.00
71149;BME280;59072;42.144;25.200;2024-03-08T02:30:48;100262.13;;;5.97;100.00
71149;BME280;59072;42.144;25.200;2024-03-08T02:33:15;100244.59;;;5.96;100.00
71149;BME280;59072;42.144;25.200;2024-03-08T02:35:47;100265.41;;;5.84;100.00
71149;BME280;59072;42.144;25.200;2024-03-08T02:38:14;100246.75;;;5.78;100.00
71149;BME280;59072;42.144;25.200;2024-03-08T02:40:42;100240.56;;;5.86;100.00
71149;BME280;59072;42.144;25.200;2024-03-08T02:43:08;100256.28;;;5.87;100.00
71149;BME280;59072;42.144;25.200;2024-03-08T02:45:33;100250.69;;;5.82;100.00
71149;BME280;59072;42.144;25.200;2024-03-08T02:48:00;100250.78;;;5.74;100.00
71149;BME280;59072;42.144;25.200;2024-03-08T02:50:25;100268.56;;;5.80;100.00
71149;BME280;59072;42.144;25.200;2024-03-08T02:52:51;100267.13;;;5.77;100.00
71149;BME280;59072;42.144;25.200;2024-03-08T02:55:16;100260.38;;;5.90;100.00
71149;BME280;59072;42.144;25.200;2024-03-08T02:57:42;100251.16;;;5.71;100.00
71149;BME280;59072;42.144;25.200;2024-03-08T03:00:09;100258.53;;;5.75;100.00
71149;BME280;59072;42.144;25.200;2024-03-08T03:02:35;100262.94;;;5.83;100.00
71149;BME280;59072;42.144;25.200;2024-03-08T03:05:01;100253.63;;;5.72;100.00
71149;BME280;59072;42.144;25.200;2024-03-08T03:07:30;100243.56;;;5.68;100.00
71149;BME280;59072;42.144;25.200;2024-03-08T03:09:56;100217.94;;;5.23;100.00
71149;BME280;59072;42.144;25.200;2024-03-08T03:12:21;100261.34;;;5.44;100.00
71149;BME280;59072;42.144;25.200;2024-03-08T03:14:48;100251.03;;;5.49;100.00
71149;BME280;59072;42.144;25.200;2024-03-08T03:17:13;100267.47;;;5.44;100.00
71149;BME280;59072;42.144;25.200;2024-03-08T03:19:40;100257.63;;;5.53;100.00
71149;BME280;59072;42.144;25.200;2024-03-08T03:22:07;100237.16;;;5.32;100.00
71149;BME280;59072;42.144;25.200;2024-03-08T03:24:35;100263.09;;;5.81;100.00
71149;BME280;59072;42.144;25.200;2024-03-08T03:27:04;100254.53;;;5.64;100.00
71149;BME280;59072;42.144;25.200;2024-03-08T03:29:36;100258.91;;;5.57;100.00
71149;BME280;59072;42.144;25.200;2024-03-08T03:32:01;100259.59;;;5.36;100.00
71149;BME280;59072;42.144;25.200;2024-03-08T03:34:29;100272.00;;;5.36;100.00
71149;BME280;59072;42.144;25.200;2024-03-08T03:36:54;100283.97;;;5.61;100.00
71149;BME280;59072;42.144;25.200;2024-03-08T03:39:21;100265.13;;;5.50;100.00
71149;BME280;59072;42.144;25.200;2024-03-08T03:41:48;100247.72;;;5.17;100.00
71149;BME280;59072;42.144;25.200;2024-03-08T03:44:17;100282.88;;;5.41;100.00
71149;BME280;59072;42.144;25.200;2024-03-08T03:46:43;100276.22;;;5.45;100.00
71149;BME280;59072;42.144;25.200;2024-03-08T03:49:12;100276.94;;;5.39;100.00
71149;BME280;59072;42.144;25.200;2024-03-08T03:51:38;100280.28;;;5.33;100.00
71149;BME280;59072;42.144;25.200;2024-03-08T03:54:03;100267.88;;;5.18;100.00
71149;BME280;59072;42.144;25.200;2024-03-08T03:56:29;100273.38;;;5.32;100.00
71149;BME280;59072;42.144;25.200;2024-03-08T03:58:55;100280.53;;;5.46;100.00
71149;BME280;59072;42.144;25.200;2024-03-08T04:01:21;100290.88;;;5.33;100.00
71149;BME280;59072;42.144;25.200;2024-03-08T04:03:47;100273.38;;;5.32;100.00
71149;BME280;59072;42.144;25.200;2024-03-08T04:06:12;100284.16;;;5.45;100.00
71149;BME280;59072;42.144;25.200;2024-03-08T04:08:38;100270.72;;;5.32;100.00
71149;BME280;59072;42.144;25.200;2024-03-08T04:11:03;100263.00;;;5.45;100.00
71149;BME280;59072;42.144;25.200;2024-03-08T04:13:29;100283.97;;;5.61;100.00
71149;BME280;59072;42.144;25.200;2024-03-08T04:15:54;100290.84;;;5.71;100.00
71149;BME280;59072;42.144;25.200;2024-03-08T04:18:20;100270.19;;;5.51;100.00
71149;BME280;59072;42.144;25.200;2024-03-08T04:20:45;100291.66;;;5.56;100.00
71149;BME280;59072;42.144;25.200;2024-03-08T04:23:10;100283.63;;;5.64;100.00
71149;BME280;59072;42.144;25.200;2024-03-08T04:25:36;100255.69;;;5.47;100.00
71149;BME280;59072;42.144;25.200;2024-03-08T04:28:01;100285.28;;;5.66;100.00
71149;BME280;59072;42.144;25.200;2024-03-08T04:30:27;100283.00;;;5.62;100.00
71149;BME280;59072;42.144;25.200;2024-03-08T04:32:54;100284.28;;;5.67;100.00
71149;BME280;59072;42.144;25.200;2024-03-08T04:35:19;100295.84;;;5.66;100.00
71149;BME280;59072;42.144;25.200;2024-03-08T04:37:45;100288.72;;;5.51;100.00
71149;BME280;59072;42.144;25.200;2024-03-08T04:40:11;100290.47;;;5.44;100.00
71149;BME280;59072;42.144;25.200;2024-03-08T04:42:37;100295.66;;;5.52;100.00
71149;BME280;59072;42.144;25.200;2024-03-08T04:45:04;100291.03;;;5.69;100.00
71149;BME280;59072;42.144;25.200;2024-03-08T04:47:30;100294.56;;;5.61;100.00
71149;BME280;59072;42.144;25.200;2024-03-08T04:49:56;100277.00;;;5.31;100.00
71149;BME280;59072;42.144;25.200;2024-03-08T04:52:22;100302.41;;;5.40;100.00
71149;BME280;59072;42.144;25.200;2024-03-08T04:54:47;100300.53;;;5.26;100.00
71149;BME280;59072;42.144;25.200;2024-03-08T04:57:13;100270.63;;;5.02;100.00
71149;BME280;59072;42.144;25.200;2024-03-08T04:59:39;100282.44;;;5.14;100.00
71149;BME280;59072;42.144;25.200;2024-03-08T05:02:05;100289.25;;;5.32;100.00
71149;BME280;59072;42.144;25.200;2024-03-08T05:04:30;100280.28;;;5.33;100.00
71149;BME280;59072;42.144;25.200;2024-03-08T05:06:55;100306.31;;;5.44;100.00
71149;BME280;59072;42.144;25.200;2024-03-08T05:09:21;100312.03;;;5.33;100.00
71149;BME280;59072;42.144;25.200;2024-03-08T05:11:47;100307.94;;;5.45;100.00
71149;BME280;59072;42.144;25.200;2024-03-08T05:14:13;100322.78;;;5.69;100.00
71149;BME280;59072;42.144;25.200;2024-03-08T05:16:43;100311.25;;;5.47;100.00
71149;BME280;59072;42.144;25.200;2024-03-08T05:19:08;100312.19;;;5.54;100.00
71149;BME280;59072;42.144;25.200;2024-03-08T05:21:34;100305.88;;;5.55;100.00
71149;BME280;59072;42.144;25.200;2024-03-08T05:23:59;100314.66;;;5.56;100.00
71149;BME280;59072;42.144;25.200;2024-03-08T05:26:24;100330.88;;;5.68;100.00
71149;BME280;59072;42.144;25.200;2024-03-08T05:28:50;100325.97;;;5.64;100.00
71149;BME280;59072;42.144;25.200;2024-03-08T05:31:21;100329.53;;;5.72;100.00
71149;BME280;59072;42.144;25.200;2024-03-08T05:33:48;100336.09;;;5.76;100.00
71149;BME280;59072;42.144;25.200;2024-03-08T05:36:14;100315.38;;;5.50;100.00
71149;BME280;59072;42.144;25.200;2024-03-08T05:38:40;100323.00;;;5.44;100.00
71149;BME280;59072;42.144;25.200;2024-03-08T05:41:07;100321.59;;;5.72;100.00
71149;BME280;59072;42.144;25.200;2024-03-08T05:43:33;100336.91;;;5.99;100.00
71149;BME280;59072;42.144;25.200;2024-03-08T05:45:58;100342.56;;;6.11;100.00
71149;BME280;59072;42.144;25.200;2024-03-08T05:48:23;100351.81;;;5.92;100.00
71149;BME280;59072;42.144;25.200;2024-03-08T05:50:50;100341.72;;;5.96;100.00
71149;BME280;59072;42.144;25.200;2024-03-08T05:53:16;100346.56;;;6.22;100.00
71149;BME280;59072;42.144;25.200;2024-03-08T05:55:41;100361.81;;;6.20;100.00
71149;BME280;59072;42.144;25.200;2024-03-08T05:58:06;100367.19;;;6.27;100.00
71149;BME280;59072;42.144;25.200;2024-03-08T06:00:34;100332.13;;;6.24;100.00
71149;BME280;59072;42.144;25.200;2024-03-08T06:02:59;100363.06;;;6.54;100.00
71149;BME280;59072;42.144;25.200;2024-03-08T06:05:25;100346.03;;;6.12;100.00
71149;BME280;59072;42.144;25.200;2024-03-08T06:07:50;100365.81;;;6.46;100.00
71149;BME280;59072;42.144;25.200;2024-03-08T06:10:18;100370.03;;;6.55;100.00
71149;BME280;59072;42.144;25.200;2024-03-08T06:12:44;100379.06;;;6.46;100.00
71149;BME280;59072;42.144;25.200;2024-03-08T06:15:10;100374.78;;;6.44;100.00
71149;BME280;59072;42.144;25.200;2024-03-08T06:17:39;100378.25;;;6.30;100.00
71149;BME280;59072;42.144;25.200;2024-03-08T06:20:05;100364.19;;;6.15;100.00
71149;BME280;59072;42.144;25.200;2024-03-08T06:22:37;100382.09;;;6.42;100.00
71149;BME280;59072;42.144;25.200;2024-03-08T06:25:02;100383.56;;;6.60;100.00
71149;BME280;59072;42.144;25.200;2024-03-08T06:27:28;100399.69;;;6.65;100.00
71149;BME280;59072;42.144;25.200;2024-03-08T06:29:53;100354.31;;;6.38;100.00
71149;BME280;59072;42.144;25.200;2024-03-08T06:32:19;100390.13;;;6.49;100.00
71149;BME280;59072;42.144;25.200;2024-03-08T06:34:44;100387.84;;;6.46;100.00
71149;BME280;59072;42.144;25.200;2024-03-08T06:37:11;100398.31;;;6.69;100.00
71149;BME280;59072;42.144;25.200;2024-03-08T06:39:37;100403.16;;;6.80;100.00
71149;BME280;59072;42.144;25.200;2024-03-08T06:42:02;100369.84;;;6.56;100.00
71149;BME280;59072;42.144;25.200;2024-03-08T06:44:30;100408.72;;;6.86;100.00
71149;BME280;59072;42.144;25.200;2024-03-08T06:46:55;100408.94;;;6.69;100.00
71149;BME280;59072;42.144;25.200;2024-03-08T06:49:20;100406.69;;;6.88;100.00
71149;BME280;59072;42.144;25.200;2024-03-08T06:51:46;100401.41;;;6.88;100.00
71149;BME280;59072;42.144;25.200;2024-03-08T06:54:11;100413.66;;;6.89;100.00
71149;BME280;59072;42.144;25.200;2024-03-08T06:56:37;100416.94;;;6.91;100.00
71149;BME280;59072;42.144;25.200;2024-03-08T06:59:03;100402.44;;;6.57;100.00
71149;BME280;59072;42.144;25.200;2024-03-08T07:01:29;100419.63;;;6.61;100.00
71149;BME280;59072;42.144;25.200;2024-03-08T07:03:57;100429.25;;;6.62;100.00
71149;BME280;59072;42.144;25.200;2024-03-08T07:06:22;100424.28;;;6.59;100.00
71149;BME280;59072;42.144;25.200;2024-03-08T07:08:48;100423.09;;;6.61;100.00
71149;BME280;59072;42.144;25.200;2024-03-08T07:11:14;100421.81;;;6.57;100.00
71149;BME280;59072;42.144;25.200;2024-03-08T07:13:45;100410.75;;;6.54;100.00
71149;BME280;59072;42.144;25.200;2024-03-08T07:16:10;100437.63;;;6.80;100.00
71149;BME280;59072;42.144;25.200;2024-03-08T07:18:37;100406.38;;;6.61;100.00
71149;BME280;59072;42.144;25.200;2024-03-08T07:21:05;100408.59;;;6.42;100.00
71149;BME280;59072;42.144;25.200;2024-03-08T07:23:30;100412.06;;;6.58;100.00
71149;BME280;59072;42.144;25.200;2024-03-08T07:26:15;100424.47;;;6.72;100.00
71149;BME280;59072;42.144;25.200;2024-03-08T07:28:41;100434.69;;;6.75;100.00
71149;BME280;59072;42.144;25.200;2024-03-08T07:31:07;100423.66;;;6.57;100.00
71149;BME280;59072;42.144;25.200;2024-03-08T07:33:50;100432.44;;;6.72;100.00
71149;BME280;59072;42.144;25.200;2024-03-08T07:36:15;100441.16;;;6.88;100.00
71149;BME280;59072;42.144;25.200;2024-03-08T07:38:41;100435.94;;;6.94;100.00
71149;BME280;59072;42.144;25.200;2024-03-08T07:41:06;100445.38;;;6.82;100.00
71149;BME280;59072;42.144;25.200;2024-03-08T07:43:32;100441.97;;;7.03;100.00
71149;BME280;59072;42.144;25.200;2024-03-08T07:46:00;100446.38;;;6.96;100.00
71149;BME280;59072;42.144;25.200;2024-03-08T07:48:25;100415.69;;;6.87;100.00
71149;BME280;59072;42.144;25.200;2024-03-08T07:50:52;100441.16;;;6.88;100.00
71149;BME280;59072;42.144;25.200;2024-03-08T07:53:17;100437.81;;;6.79;100.00
71149;BME280;59072;42.144;25.200;2024-03-08T07:55:42;100430.50;;;6.81;100.00
71149;BME280;59072;42.144;25.200;2024-03-08T07:58:10;100441.44;;;6.93;100.00
71149;BME280;59072;42.144;25.200;2024-03-08T08:00:36;100453.69;;;6.94;100.00
71149;BME280;59072;42.144;25.200;2024-03-08T08:03:02;100432.78;;;6.69;100.00
71149;BME280;59072;42.144;25.200;2024-03-08T08:05:28;100443.00;;;6.87;100.00
71149;BME280;59072;42.144;25.200;2024-03-08T08:07:53;100434.19;;;7.01;100.00
71149;BME280;59072;42.144;25.200;2024-03-08T08:10:19;100462.91;;;7.34;100.00
71149;BME280;59072;42.144;25.200;2024-03-08T08:12:47;100464.25;;;7.23;100.00
71149;BME280;59072;42.144;25.200;2024-03-08T08:15:13;100443.44;;;7.06;100.00
71149;BME280;59072;42.144;25.200;2024-03-08T08:17:43;100457.28;;;7.22;100.00
71149;BME280;59072;42.144;25.200;2024-03-08T08:20:10;100462.16;;;7.40;100.00
71149;BME280;59072;42.144;25.200;2024-03-08T08:22:41;100466.09;;;7.08;100.00
71149;BME280;59072;42.144;25.200;2024-03-08T08:25:07;100444.72;;;6.95;100.00
71149;BME280;59072;42.144;25.200;2024-03-08T08:27:33;100470.22;;;6.96;100.00
71149;BME280;59072;42.144;25.200;2024-03-08T08:29:59;100471.69;;;7.13;100.00
71149;BME280;59072;42.144;25.200;2024-03-08T08:32:24;100473.94;;;7.16;100.00
71149;BME280;59072;42.144;25.200;2024-03-08T08:34:50;100459.88;;;7.37;100.00
71149;BME280;59072;42.144;25.200;2024-03-08T08:37:15;100476.59;;;7.53;100.00
71149;BME280;59072;42.144;25.200;2024-03-08T08:39:42;100477.28;;;7.40;100.00
71149;BME280;59072;42.144;25.200;2024-03-08T08:42:07;100475.25;;;7.42;100.00
71149;BME280;59072;42.144;25.200;2024-03-08T08:44:37;100480.38;;;7.07;100.00
71149;BME280;59072;42.144;25.200;2024-03-08T08:47:02;100473.66;;;7.26;100.00
71149;BME280;59072;42.144;25.200;2024-03-08T08:49:29;100459.81;;;7.31;100.00
71149;BME280;59072;42.144;25.200;2024-03-08T08:51:56;100486.50;;;7.44;100.00
71149;BME280;59072;42.144;25.200;2024-03-08T08:54:23;100472.59;;;7.42;100.00
71149;BME280;59072;42.144;25.200;2024-03-08T08:56:50;100462.97;;;7.19;100.00
71149;BME280;59072;42.144;25.200;2024-03-08T08:59:16;100489.47;;;7.56;100.00
71149;BME280;59072;42.144;25.200;2024-03-08T09:01:45;100478.84;;;7.56;100.00
71149;BME280;59072;42.144;25.200;2024-03-08T09:04:13;100483.13;;;7.35;100.00
71149;BME280;59072;42.144;25.200;2024-03-08T09:06:39;100478.72;;;7.64;100.00
71149;BME280;59072;42.144;25.200;2024-03-08T09:09:06;100476.53;;;7.31;100.00
71149;BME280;59072;42.144;25.200;2024-03-08T09:11:34;100451.19;;;7.07;100.00
71149;BME280;59072;42.144;25.200;2024-03-08T09:14:00;100468.06;;;7.36;100.00
71149;BME280;59072;42.144;25.200;2024-03-08T09:16:27;100466.09;;;7.44;100.00
71149;BME280;59072;42.144;25.200;2024-03-08T09:18:52;100467.28;;;7.42;100.00
71149;BME280;59072;42.144;25.200;2024-03-08T09:21:18;100482.72;;;7.75;100.00
71149;BME280;59072;42.144;25.200;2024-03-08T09:23:43;100475.84;;;8.09;100.00
71149;BME280;59072;42.144;25.200;2024-03-08T09:26:10;100460.31;;;8.05;100.00
71149;BME280;59072;42.144;25.200;2024-03-08T09:28:38;100469.00;;;8.21;100.00
71149;BME280;59072;42.144;25.200;2024-03-08T09:31:03;100461.03;;;8.21;100.00
71149;BME280;59072;42.144;25.200;2024-03-08T09:33:30;100485.19;;;8.26;100.00
71149;BME280;59072;42.144;25.200;2024-03-08T09:35:56;100486.19;;;8.47;100.00
71149;BME280;59072;42.144;25.200;2024-03-08T09:38:25;100461.22;;;8.48;100.00
71149;BME280;59072;42.144;25.200;2024-03-08T09:40:51;100480.16;;;8.66;100.00
71149;BME280;59072;42.144;25.200;2024-03-08T09:43:18;100456.56;;;8.21;100.00
71149;BME280;59072;42.144;25.200;2024-03-08T09:45:45;100453.50;;;8.53;100.00
71149;BME280;59072;42.144;25.200;2024-03-08T09:48:15;100449.00;;;8.53;100.00
71149;BME280;59072;42.144;25.200;2024-03-08T09:50:42;100486.66;;;8.57;100.00
71149;BME280;59072;42.144;25.200;2024-03-08T09:53:08;100474.63;;;8.39;100.00
71149;BME280;59072;42.144;25.200;2024-03-08T09:55:38;100447.06;;;8.69;100.00
71149;BME280;59072;42.144;25.200;2024-03-08T09:58:08;100437.28;;;8.82;100.00
71149;BME280;59072;42.144;25.200;2024-03-08T10:00:45;100467.53;;;8.75;100.00
71149;BME280;59072;42.144;25.200;2024-03-08T10:03:10;100465.44;;;8.70;100.00
71149;BME280;59072;42.144;25.200;2024-03-08T10:05:36;100454.47;;;8.45;100.00
71149;BME280;59072;42.144;25.200;2024-03-08T10:08:02;100460.88;;;8.57;100.00
71149;BME280;59072;42.144;25.200;2024-03-08T10:10:28;100467.47;;;8.68;100.00
71149;BME280;59072;42.144;25.200;2024-03-08T10:12:55;100469.84;;;8.50;100.00
71149;BME280;59072;42.144;25.200;2024-03-08T10:15:20;100461.63;;;8.79;100.00
71149;BME280;59072;42.144;25.200;2024-03-08T10:17:46;100446.31;;;8.95;100.00
71149;BME280;59072;42.144;25.200;2024-03-08T10:20:16;100474.00;;;9.07;100.00
71149;BME280;59072;42.144;25.200;2024-03-08T10:22:42;100468.84;;;8.92;100.00
71149;BME280;59072;42.144;25.200;2024-03-08T10:25:10;100475.47;;;8.68;100.00
71149;BME280;59072;42.144;25.200;2024-03-08T10:27:36;100449.84;;;8.25;100.00
71149;BME280;59072;42.144;25.200;2024-03-08T10:30:02;100444.72;;;8.24;100.00
71149;BME280;59072;42.144;25.200;2024-03-08T10:32:28;100444.72;;;8.52;100.00
71149;BME280;59072;42.144;25.200;2024-03-08T10:34:53;100431.66;;;8.29;100.00
71149;BME280;59072;42.144;25.200;2024-03-08T10:37:21;100466.00;;;9.00;100.00
71149;BME280;59072;42.144;25.200;2024-03-08T10:40:09;100464.84;;;9.16;100.00
71149;BME280;59072;42.144;25.200;2024-03-08T10:42:53;100433.16;;;9.21;100.00
71149;BME280;59072;42.144;25.200;2024-03-08T10:45:35;100433.38;;;9.47;100.00
71149;BME280;59072;42.144;25.200;2024-03-08T10:50:41;100448.06;;;9.16;100.00
71149;BME280;59072;42.144;25.200;2024-03-08T10:53:11;100445.66;;;9.28;100.00
71149;BME280;59072;42.144;25.200;2024-03-08T10:55:37;100441.94;;;9.22;100.00
71149;BME280;59072;42.144;25.200;2024-03-08T10:58:04;100452.16;;;9.18;100.00
71149;BME280;59072;42.144;25.200;2024-03-08T11:00:30;100454.47;;;8.80;100.00
71149;BME280;59072;42.144;25.200;2024-03-08T11:02:57;100415.25;;;8.54;100.00
71149;BME280;59072;42.144;25.200;2024-03-08T11:05:40;100455.72;;;8.91;100.00
71149;BME280;59072;42.144;25.200;2024-03-08T11:10:53;100436.47;;;8.82;100.00
71149;BME280;59072;42.144;25.200;2024-03-08T11:13:37;100440.22;;;9.01;100.00
71149;BME280;59072;42.144;25.200;2024-03-08T11:16:09;100431.16;;;8.89;100.00
71149;BME280;59072;42.144;25.200;2024-03-08T11:18:35;100440.03;;;9.02;100.00
71149;BME280;59072;42.144;25.200;2024-03-08T11:21:04;100435.47;;;9.71;100.00
71149;BME280;59072;42.144;25.200;2024-03-08T11:23:37;100408.41;;;9.94;100.00
71149;BME280;59072;42.144;25.200;2024-03-08T11:26:03;100427.03;;;9.34;100.00
71149;BME280;59072;42.144;25.200;2024-03-08T11:28:32;100426.03;;;9.42;100.00
71149;BME280;59072;42.144;25.200;2024-03-08T11:33:28;100449.81;;;9.97;100.00
71149;BME280;59072;42.144;25.200;2024-03-08T11:36:10;100444.06;;;10.33;100.00
71149;BME280;59072;42.144;25.200;2024-03-08T11:38:40;100432.69;;;10.71;100.00
71149;BME280;59072;42.144;25.200;2024-03-08T11:41:06;100457.22;;;11.70;100.00
71149;BME280;59072;42.144;25.200;2024-03-08T11:43:32;100437.84;;;11.75;100.00
71149;BME280;59072;42.144;25.200;2024-03-08T11:46:11;100447.66;;;10.72;100.00
71149;BME280;59072;42.144;25.200;2024-03-08T11:48:44;100442.00;;;10.09;100.00
71149;BME280;59072;42.144;25.200;2024-03-08T11:51:14;100444.50;;;10.30;100.00
71149;BME280;59072;42.144;25.200;2024-03-08T11:53:40;100456.22;;;11.33;100.00
71149;BME280;59072;42.144;25.200;2024-03-08T11:56:14;100460.34;;;12.17;100.00
71149;BME280;59072;42.144;25.200;2024-03-08T11:58:40;100460.63;;;11.84;100.00
71149;BME280;59072;42.144;25.200;2024-03-08T12:01:08;100464.34;;;11.51;100.00
71149;BME280;59072;42.144;25.200;2024-03-08T12:03:42;100449.75;;;10.63;100.00
71149;BME280;59072;42.144;25.200;2024-03-08T12:06:11;100448.16;;;10.42;100.00
71149;BME280;59072;42.144;25.200;2024-03-08T12:08:38;100439.13;;;10.23;100.00
71149;BME280;59072;42.144;25.200;2024-03-08T12:11:04;100432.56;;;10.26;100.00
71149;BME280;59072;42.144;25.200;2024-03-08T12:13:34;100421.13;;;10.05;100.00
71149;BME280;59072;42.144;25.200;2024-03-08T12:16:01;100429.50;;;10.02;100.00
71149;BME280;59072;42.144;25.200;2024-03-08T12:18:29;100446.13;;;10.18;100.00
71149;BME280;59072;42.144;25.200;2024-03-08T12:21:08;100446.72;;;10.06;100.00
71149;BME280;59072;42.144;25.200;2024-03-08T12:23:34;100438.72;;;10.06;100.00
71149;BME280;59072;42.144;25.200;2024-03-08T12:26:17;100455.41;;;10.87;100.00
71149;BME280;59072;42.144;25.200;2024-03-08T12:28:44;100446.34;;;11.01;100.00
71149;BME280;59072;42.144;25.200;2024-03-08T12:31:13;100429.75;;;10.86;100.00
71149;BME280;59072;42.144;25.200;2024-03-08T12:36:16;100440.72;;;11.16;100.00
71149;BME280;59072;42.144;25.200;2024-03-08T12:38:48;100439.91;;;12.04;100.00
71149;BME280;59072;42.144;25.200;2024-03-08T12:41:18;100431.84;;;12.30;100.00
71149;BME280;59072;42.144;25.200;2024-03-08T12:43:44;100428.88;;;12.75;100.00
71149;BME280;59072;42.144;25.200;2024-03-08T12:48:45;100410.28;;;12.06;100.00
71149;BME280;59072;42.144;25.200;2024-03-08T12:51:21;100429.63;;;11.51;100.00